createdAt,value
2022-08-17T00:00:03.768Z,43.88
2022-08-17T00:02:31.201Z,43.79
2022-08-17T00:05:03.960Z,43.92
2022-08-17T00:07:30.764Z,44.03
2022-08-17T00:09:57.679Z,44.14
2022-08-17T00:12:43.054Z,43.90
2022-08-17T00:15:13.346Z,44.39
2022-08-17T00:17:42.420Z,44.24
2022-08-17T00:20:11.205Z,44.38
2022-08-17T00:22:38.281Z,44.23
2022-08-17T00:25:11.997Z,44.19
2022-08-17T00:27:39.304Z,44.28
2022-08-17T00:30:10.663Z,44.16
2022-08-17T00:33:14.163Z,44.49
2022-08-17T00:35:34.329Z,44.50
2022-08-17T00:38:01.175Z,44.43
2022-08-17T00:40:44.274Z,44.46
2022-08-17T00:43:29.128Z,44.45
2022-08-17T00:45:57.517Z,44.25
2022-08-17T00:48:29.240Z,44.33
2022-08-17T00:51:08.326Z,44.25
2022-08-17T00:53:41.770Z,44.23
2022-08-17T00:56:17.046Z,44.47
2022-08-17T00:58:44.656Z,44.64
2022-08-17T01:01:21.755Z,44.46
2022-08-17T01:03:52.480Z,44.48
2022-08-17T01:06:22.806Z,44.92
2022-08-17T01:08:52.039Z,45.03
2022-08-17T01:11:25.311Z,45.10
2022-08-17T01:13:52.356Z,45.08
2022-08-17T01:16:28.512Z,45.51
2022-08-17T01:19:10.856Z,45.26
2022-08-17T01:21:52.310Z,45.51
2022-08-17T01:24:19.296Z,45.40
2022-08-17T01:26:47.402Z,45.59
2022-08-17T01:29:16.761Z,46.02
2022-08-17T01:31:53.480Z,46.01
2022-08-17T01:34:21.598Z,45.71
2022-08-17T01:36:50.007Z,45.90
2022-08-17T01:39:40.607Z,45.79
2022-08-17T01:42:24.450Z,46.45
2022-08-17T01:44:58.970Z,46.07
2022-08-17T01:47:26.155Z,46.41
2022-08-17T01:49:53.621Z,46.51
2022-08-17T01:52:21.984Z,46.14
2022-08-17T01:54:51.389Z,45.84
2022-08-17T01:57:18.450Z,46.15
2022-08-17T01:59:45.303Z,45.99
2022-08-17T02:02:12.153Z,46.22
2022-08-17T02:04:57.011Z,46.43
2022-08-17T02:07:26.112Z,46.25
2022-08-17T02:09:53.989Z,46.15
2022-08-17T02:12:37.680Z,46.33
2022-08-17T02:15:10.044Z,46.16
2022-08-17T02:17:36.894Z,46.44
2022-08-17T02:20:05.321Z,46.36
2022-08-17T02:22:32.175Z,46.58
2022-08-17T02:25:02.348Z,46.79
2022-08-17T02:27:29.598Z,46.57
2022-08-17T02:29:56.418Z,46.60
2022-08-17T02:32:28.377Z,46.76
2022-08-17T02:34:58.196Z,46.61
2022-08-17T02:37:27.886Z,46.74
2022-08-17T02:39:59.378Z,46.68
2022-08-17T02:42:38.176Z,46.69
2022-08-17T02:45:14.263Z,46.97
2022-08-17T02:47:43.457Z,47.15
2022-08-17T02:50:13.920Z,46.90
2022-08-17T02:52:44.325Z,47.12
2022-08-17T02:55:24.648Z,47.19
2022-08-17T02:57:52.841Z,47.13
2022-08-17T03:00:28.894Z,47.22
2022-08-17T03:02:57.775Z,47.23
2022-08-17T03:05:28.464Z,47.52
2022-08-17T03:07:56.478Z,47.56
2022-08-17T03:10:24.642Z,47.75
2022-08-17T03:12:53.428Z,47.82
2022-08-17T03:15:28.150Z,47.83
2022-08-17T03:17:57.863Z,47.93
2022-08-17T03:20:27.925Z,47.97
2022-08-17T03:23:02.045Z,48.16
2022-08-17T03:25:38.731Z,48.32
2022-08-17T03:28:07.466Z,48.28
2022-08-17T03:30:35.876Z,48.75
2022-08-17T03:33:06.431Z,49.17
2022-08-17T03:35:36.445Z,49.30
2022-08-17T03:38:04.647Z,49.12
2022-08-17T03:40:55.332Z,49.30
2022-08-17T03:43:21.621Z,49.39
2022-08-17T03:46:11.046Z,49.76
2022-08-17T03:49:13.347Z,49.26
2022-08-17T03:51:58.930Z,48.94
2022-08-17T03:54:44.991Z,48.86
2022-08-17T03:57:12.552Z,49.12
2022-08-17T03:59:40.974Z,48.66
2022-08-17T04:02:18.359Z,48.45
2022-08-17T04:04:45.247Z,48.74
2022-08-17T04:07:12.440Z,48.90
2022-08-17T04:09:39.376Z,48.52
2022-08-17T04:12:06.457Z,49.08
2022-08-17T04:14:51.675Z,48.92
2022-08-17T04:17:20.087Z,49.03
2022-08-17T04:19:47.130Z,48.79
2022-08-17T04:22:32.421Z,48.87
2022-08-17T04:25:14.682Z,48.43
2022-08-17T04:27:41.463Z,48.92
2022-08-17T04:30:09.674Z,49.43
2022-08-17T04:33:05.486Z,50.11
2022-08-17T04:35:45.533Z,51.53
2022-08-17T04:38:16.611Z,51.70
2022-08-17T04:41:03.224Z,52.01
2022-08-17T04:43:32.610Z,52.14
2022-08-17T04:46:07.057Z,52.68
2022-08-17T04:48:44.676Z,52.75
2022-08-17T04:51:25.269Z,52.56
2022-08-17T04:54:03.218Z,52.17
2022-08-17T04:56:31.975Z,52.49
2022-08-17T04:59:06.621Z,52.34
2022-08-17T05:01:36.282Z,52.22
2022-08-17T05:04:33.146Z,52.11
2022-08-17T05:07:03.113Z,51.78
2022-08-17T05:09:29.967Z,51.91
2022-08-17T05:12:02.213Z,51.71
2022-08-17T05:14:32.726Z,51.88
2022-08-17T05:17:01.575Z,51.65
2022-08-17T05:19:31.332Z,51.09
2022-08-17T05:21:58.190Z,51.06
2022-08-17T05:24:43.090Z,50.69
2022-08-17T05:27:17.779Z,50.50
2022-08-17T05:29:45.999Z,50.22
2022-08-17T05:32:39.054Z,49.83
2022-08-17T05:35:01.347Z,49.68
2022-08-17T05:37:28.375Z,49.60
2022-08-17T05:39:55.342Z,49.25
2022-08-17T05:42:22.566Z,48.77
2022-08-17T05:44:49.444Z,48.82
2022-08-17T05:47:18.234Z,48.92
2022-08-17T05:49:45.189Z,49.06
2022-08-17T05:52:35.250Z,49.00
2022-08-17T05:55:30.678Z,48.69
2022-08-17T05:58:31.329Z,48.60
2022-08-17T06:01:38.348Z,48.02
2022-08-17T06:04:16.749Z,48.28
2022-08-17T06:07:00.928Z,47.86
2022-08-17T06:09:47.365Z,47.78
2022-08-17T06:12:52.302Z,47.79
2022-08-17T06:15:47.050Z,47.90
2022-08-17T06:18:18.613Z,48.24
2022-08-17T06:20:53.461Z,47.99
2022-08-17T06:23:52.313Z,47.77
2022-08-17T06:26:38.452Z,48.25
2022-08-17T06:29:49.003Z,48.21
2022-08-17T06:32:17.116Z,48.47
2022-08-17T06:34:46.869Z,48.79
2022-08-17T06:37:53.957Z,48.55
2022-08-17T06:40:45.552Z,48.09
2022-08-17T06:44:00.707Z,47.46
2022-08-17T06:46:48.443Z,47.25
2022-08-17T06:49:26.332Z,46.83
2022-08-17T06:52:06.830Z,46.37
2022-08-17T06:55:18.030Z,46.13
2022-08-17T06:57:58.194Z,45.50
2022-08-17T07:00:36.083Z,45.31
2022-08-17T07:03:09.606Z,44.83
2022-08-17T07:05:50.331Z,44.69
2022-08-17T07:08:38.318Z,43.90
2022-08-17T07:11:20.632Z,43.71
2022-08-17T07:14:24.056Z,44.04
2022-08-17T07:16:56.105Z,43.79
2022-08-17T07:19:31.469Z,43.33
2022-08-17T07:22:07.151Z,43.32
2022-08-17T07:24:59.683Z,42.71
2022-08-17T07:27:41.039Z,42.67
2022-08-17T07:30:19.992Z,42.48
2022-08-17T07:33:20.257Z,42.46
2022-08-17T07:35:49.823Z,41.16
2022-08-17T07:38:30.010Z,41.17
2022-08-17T07:41:03.515Z,41.30
2022-08-17T07:43:39.549Z,41.25
2022-08-17T07:46:24.996Z,41.33
2022-08-17T07:48:58.148Z,41.02
2022-08-17T07:51:30.257Z,40.86
2022-08-17T07:54:23.463Z,40.61
2022-08-17T07:57:00.446Z,40.70
2022-08-17T07:59:34.093Z,40.58
2022-08-17T08:02:03.342Z,40.32
2022-08-17T08:07:31.854Z,39.95
2022-08-17T08:10:45.258Z,40.33
2022-08-17T08:13:24.964Z,39.97
2022-08-17T08:15:55.920Z,40.07
2022-08-17T08:18:54.452Z,39.78
2022-08-17T08:21:56.351Z,39.97
2022-08-17T08:25:20.647Z,39.93
2022-08-17T08:28:12.696Z,39.91
2022-08-17T08:30:48.745Z,39.73
2022-08-17T08:33:32.135Z,39.91
2022-08-17T08:37:05.326Z,39.96
2022-08-17T08:40:03.750Z,40.52
2022-08-17T08:42:44.873Z,40.36
2022-08-17T08:45:32.131Z,40.15
2022-08-17T08:48:53.086Z,40.68
2022-08-17T08:51:48.529Z,40.90
2022-08-17T08:54:47.538Z,40.99
2022-08-17T08:57:36.648Z,40.91
2022-08-17T09:00:38.253Z,40.89
2022-08-17T09:03:52.723Z,41.21
2022-08-17T09:06:51.433Z,41.66
2022-08-17T09:09:39.626Z,41.33
2022-08-17T09:12:50.874Z,41.80
2022-08-17T09:15:32.025Z,41.56
2022-08-17T09:19:02.861Z,41.76
2022-08-17T09:21:13.567Z,41.75
2022-08-17T09:24:04.754Z,41.99
2022-08-17T09:26:54.258Z,42.44
2022-08-17T09:29:25.320Z,42.10
2022-08-17T09:32:03.719Z,42.27
2022-08-17T09:34:48.550Z,42.92
2022-08-17T09:38:20.831Z,42.69
2022-08-17T09:41:28.089Z,43.07
2022-08-17T09:44:39.923Z,42.97
2022-08-17T09:47:31.635Z,42.48
2022-08-17T09:51:01.624Z,42.16
2022-08-17T09:53:22.655Z,42.17
2022-08-17T09:56:03.079Z,42.36
2022-08-17T09:58:47.681Z,42.27
2022-08-17T10:01:36.651Z,42.03
2022-08-17T10:05:09.655Z,41.77
2022-08-17T10:07:47.167Z,41.75
2022-08-17T10:10:56.227Z,41.50
2022-08-17T10:13:36.291Z,41.65
2022-08-17T10:16:08.052Z,41.26
2022-08-17T10:18:54.192Z,41.55
2022-08-17T10:21:42.590Z,41.96
2022-08-17T10:24:40.072Z,41.84
2022-08-17T10:27:48.832Z,41.62
2022-08-17T10:30:21.959Z,41.84
2022-08-17T10:33:16.328Z,41.90
2022-08-17T10:35:46.120Z,42.15
2022-08-17T10:38:49.443Z,42.38
2022-08-17T10:41:40.719Z,42.29
2022-08-17T10:44:46.788Z,42.68
2022-08-17T10:47:18.500Z,43.16
2022-08-17T10:49:53.921Z,42.92
2022-08-17T10:52:21.852Z,42.61
2022-08-17T10:54:51.764Z,42.95
2022-08-17T10:57:31.608Z,42.56
2022-08-17T11:00:15.466Z,42.56
2022-08-17T11:02:54.575Z,42.21
2022-08-17T11:05:43.974Z,42.19
2022-08-17T11:08:36.234Z,42.76
2022-08-17T11:11:59.795Z,42.55
2022-08-17T11:15:03.500Z,42.89
2022-08-17T11:18:01.487Z,42.94
2022-08-17T11:20:41.264Z,43.19
2022-08-17T11:23:33.337Z,42.79
2022-08-17T11:26:08.227Z,42.85
2022-08-17T11:28:52.588Z,43.80
2022-08-17T11:31:38.035Z,44.20
2022-08-17T11:34:29.895Z,44.84
2022-08-17T11:37:33.289Z,45.14
2022-08-17T11:40:20.526Z,45.43
2022-08-17T11:43:28.468Z,46.35
2022-08-17T11:47:11.129Z,46.59
2022-08-17T11:50:27.695Z,47.27
2022-08-17T11:52:55.476Z,47.62
2022-08-17T11:55:39.388Z,47.87
2022-08-17T11:58:31.132Z,47.69
2022-08-17T12:01:00.747Z,48.05
2022-08-17T12:03:33.730Z,47.98
2022-08-17T12:06:24.812Z,47.68
2022-08-17T12:09:10.381Z,47.93
2022-08-17T12:12:12.962Z,47.85
2022-08-17T12:15:09.679Z,48.39
2022-08-17T12:17:40.468Z,48.61
2022-08-17T12:20:33.603Z,48.89
2022-08-17T12:23:22.904Z,48.71
2022-08-17T12:26:19.774Z,49.19
2022-08-17T12:28:57.154Z,49.01
2022-08-17T12:31:36.737Z,48.20
2022-08-17T12:34:05.106Z,47.73
2022-08-17T12:36:33.885Z,47.85
2022-08-17T12:39:13.832Z,47.82
2022-08-17T12:41:47.119Z,46.69
2022-08-17T12:44:49.957Z,46.67
2022-08-17T12:47:22.590Z,46.80
2022-08-17T12:49:54.195Z,46.49
2022-08-17T12:52:27.230Z,46.11
2022-08-17T12:55:22.816Z,45.99
2022-08-17T12:57:59.436Z,46.28
2022-08-17T13:00:30.289Z,46.14
2022-08-17T13:03:15.555Z,46.21
2022-08-17T13:06:00.603Z,45.43
2022-08-17T13:08:47.890Z,45.68
2022-08-17T13:11:14.585Z,46.01
2022-08-17T13:13:46.255Z,45.84
2022-08-17T13:16:14.174Z,45.40
2022-08-17T13:19:07.612Z,45.78
2022-08-17T13:21:37.763Z,45.67
2022-08-17T13:24:17.543Z,45.12
2022-08-17T13:26:50.030Z,45.03
2022-08-17T13:29:53.033Z,44.68
2022-08-17T13:32:43.828Z,44.39
2022-08-17T13:35:43.617Z,44.66
2022-08-17T13:38:45.605Z,43.98
2022-08-17T13:41:36.776Z,43.84
2022-08-17T13:44:32.408Z,44.52
2022-08-17T13:47:01.389Z,44.23
2022-08-17T13:49:48.105Z,43.78
2022-08-17T13:52:39.777Z,43.69
2022-08-17T13:55:22.335Z,43.06
2022-08-17T13:58:06.666Z,42.28
2022-08-17T14:00:36.268Z,41.70
2022-08-17T14:03:05.569Z,41.54
2022-08-17T14:05:33.730Z,40.75
2022-08-17T14:08:06.611Z,40.45
2022-08-17T14:10:36.417Z,39.52
2022-08-17T14:13:05.252Z,39.08
2022-08-17T14:15:54.454Z,38.75
2022-08-17T14:18:30.521Z,38.19
2022-08-17T14:21:09.632Z,37.89
2022-08-17T14:23:38.389Z,37.04
2022-08-17T14:26:05.555Z,36.98
2022-08-17T14:28:32.456Z,37.13
2022-08-17T14:31:01.080Z,37.13
2022-08-17T14:33:30.712Z,37.11
2022-08-17T14:35:58.069Z,36.87
2022-08-17T14:38:24.899Z,36.80
2022-08-17T14:40:52.139Z,36.79
2022-08-17T14:43:20.881Z,37.06
2022-08-17T14:45:47.694Z,37.18
2022-08-17T14:48:14.573Z,37.04
2022-08-17T14:50:43.725Z,37.08
2022-08-17T14:53:14.039Z,37.07
2022-08-17T14:55:40.928Z,37.22
2022-08-17T14:58:09.099Z,37.26
2022-08-17T15:00:38.869Z,37.37
2022-08-17T15:03:05.936Z,37.61
2022-08-17T15:05:36.626Z,37.44
2022-08-17T15:08:05.500Z,37.65
2022-08-17T15:10:33.333Z,37.70
2022-08-17T15:13:00.567Z,37.64
2022-08-17T15:15:28.335Z,37.83
2022-08-17T15:17:55.614Z,38.15
2022-08-17T15:20:29.723Z,37.81
2022-08-17T15:22:58.803Z,38.17
2022-08-17T15:25:32.109Z,37.92
2022-08-17T15:28:00.367Z,37.71
2022-08-17T15:30:28.121Z,38.10
2022-08-17T15:32:57.585Z,38.00
2022-08-17T15:35:30.313Z,37.84
2022-08-17T15:38:11.070Z,38.17
2022-08-17T15:40:44.085Z,38.33
2022-08-17T15:43:27.437Z,38.21
2022-08-17T15:46:09.897Z,38.40
2022-08-17T15:48:43.239Z,38.54
2022-08-17T15:51:24.702Z,38.58
2022-08-17T15:54:18.749Z,38.47
2022-08-17T15:56:49.277Z,38.14
2022-08-17T15:59:16.121Z,38.26
2022-08-17T16:03:01.187Z,38.11
2022-08-17T16:04:31.819Z,37.78
2022-08-17T16:07:00.042Z,37.66
2022-08-17T16:09:27.612Z,37.86
2022-08-17T16:11:56.045Z,37.46
2022-08-17T16:14:32.382Z,37.65
2022-08-17T16:17:01.078Z,37.59
2022-08-17T16:19:27.879Z,37.27
2022-08-17T16:21:54.667Z,37.72
2022-08-17T16:24:21.910Z,37.72
2022-08-17T16:26:48.726Z,37.73
2022-08-17T16:29:15.639Z,37.98
2022-08-17T16:31:43.193Z,37.98
2022-08-17T16:34:16.913Z,37.96
2022-08-17T16:36:55.744Z,37.96
2022-08-17T16:39:29.089Z,38.19
2022-08-17T16:41:57.144Z,38.26
2022-08-17T16:44:25.765Z,38.73
2022-08-17T16:46:52.721Z,38.92
2022-08-17T16:49:35.509Z,39.03
2022-08-17T16:52:09.709Z,39.13
2022-08-17T16:54:44.365Z,39.41
2022-08-17T16:57:13.853Z,39.37
2022-08-17T16:59:44.913Z,39.59
2022-08-17T17:02:16.997Z,39.68
2022-08-17T17:04:57.503Z,39.42
2022-08-17T17:08:15.382Z,40.11
2022-08-17T17:10:50.744Z,40.36
2022-08-17T17:13:32.168Z,40.24
2022-08-17T17:16:11.610Z,40.29
2022-08-17T17:18:59.302Z,40.76
2022-08-17T17:21:42.385Z,41.01
2022-08-17T17:24:32.507Z,41.13
2022-08-17T17:27:06.999Z,40.75
2022-08-17T17:30:09.125Z,41.01
2022-08-17T17:32:54.480Z,41.12
2022-08-17T17:36:00.725Z,41.67
2022-08-17T17:38:44.183Z,41.66
2022-08-17T17:41:37.048Z,41.85
2022-08-17T17:44:17.857Z,41.95
2022-08-17T17:46:55.093Z,42.14
2022-08-17T17:49:34.021Z,41.94
2022-08-17T17:52:26.140Z,42.32
2022-08-17T17:55:23.721Z,41.91
2022-08-17T17:58:23.748Z,42.29
2022-08-17T18:01:13.477Z,42.33
2022-08-17T18:04:20.908Z,42.57
2022-08-17T18:07:32.353Z,42.25
2022-08-17T18:10:41.629Z,42.34
2022-08-17T18:13:38.180Z,42.25
2022-08-17T18:16:12.084Z,42.53
2022-08-17T18:18:46.422Z,42.60
2022-08-17T18:21:27.335Z,42.85
2022-08-17T18:24:02.439Z,42.68
2022-08-17T18:26:47.045Z,42.81
2022-08-17T18:29:31.795Z,42.84
2022-08-17T18:32:23.633Z,42.84
2022-08-17T18:35:28.462Z,42.91
2022-08-17T18:38:38.111Z,42.93
2022-08-17T18:41:27.605Z,42.94
2022-08-17T18:44:00.489Z,43.10
2022-08-17T18:46:36.814Z,42.79
2022-08-17T18:49:27.481Z,42.66
2022-08-17T18:52:24.005Z,42.38
2022-08-17T18:55:31.330Z,42.90
2022-08-17T18:58:24.228Z,43.05
2022-08-17T19:00:51.441Z,42.17
2022-08-17T19:03:26.374Z,42.02
2022-08-17T19:06:24.508Z,42.22
2022-08-17T19:08:51.392Z,42.57
2022-08-17T19:11:30.420Z,42.87
2022-08-17T19:14:07.953Z,42.95
2022-08-17T19:17:02.691Z,42.43
2022-08-17T19:20:05.034Z,42.50
2022-08-17T19:23:21.116Z,42.60
2022-08-17T19:25:54.771Z,42.75
2022-08-17T19:28:48.532Z,42.59
2022-08-17T19:31:34.908Z,42.89
2022-08-17T19:34:02.586Z,42.89
2022-08-17T19:36:58.394Z,43.06
2022-08-17T19:40:00.642Z,43.52
2022-08-17T19:42:47.417Z,43.70
2022-08-17T19:45:51.142Z,43.53
2022-08-17T19:48:52.272Z,43.48
2022-08-17T19:52:18.592Z,43.35
2022-08-17T19:54:55.321Z,43.60
2022-08-17T19:57:37.139Z,43.71
2022-08-17T20:00:12.944Z,44.22
2022-08-17T20:03:06.297Z,43.90
2022-08-17T20:06:10.931Z,43.96
2022-08-17T20:08:52.415Z,43.83
2022-08-17T20:11:31.314Z,43.66
2022-08-17T20:14:11.639Z,43.75
2022-08-17T20:16:38.674Z,43.62
2022-08-17T20:19:23.311Z,43.45
2022-08-17T20:22:08.077Z,43.31
2022-08-17T20:25:13.599Z,43.13
2022-08-17T20:28:18.648Z,43.04
2022-08-17T20:30:45.740Z,43.34
2022-08-17T20:33:37.917Z,43.30
2022-08-17T20:36:23.965Z,43.48
2022-08-17T20:39:00.103Z,43.15
2022-08-17T20:41:30.962Z,42.90
2022-08-17T20:43:58.491Z,42.83
2022-08-17T20:46:34.101Z,42.72
2022-08-17T20:49:51.041Z,42.55
2022-08-17T20:52:54.571Z,42.72
2022-08-17T20:55:51.678Z,42.85
2022-08-17T20:58:46.459Z,42.87
2022-08-17T21:01:34.504Z,43.19
2022-08-17T21:04:27.489Z,42.73
2022-08-17T21:07:42.961Z,42.95
2022-08-17T21:10:16.327Z,43.08
2022-08-17T21:12:53.203Z,43.43
2022-08-17T21:16:00.950Z,43.66
2022-08-17T21:18:50.361Z,44.10
2022-08-17T21:21:57.939Z,44.08
2022-08-17T21:24:58.129Z,44.84
2022-08-17T21:27:41.168Z,44.21
2022-08-17T21:30:10.076Z,44.36
2022-08-17T21:32:41.915Z,44.59
2022-08-17T21:35:22.024Z,44.57
2022-08-17T21:37:54.010Z,44.42
2022-08-17T21:40:29.014Z,44.85
2022-08-17T21:43:27.597Z,44.88
2022-08-17T21:46:04.299Z,45.26
2022-08-17T21:48:48.351Z,45.72
2022-08-17T21:51:25.203Z,46.38
2022-08-17T21:54:03.674Z,46.63
2022-08-17T21:56:40.101Z,46.97
2022-08-17T21:59:30.546Z,47.69
2022-08-17T22:02:03.109Z,47.29
2022-08-17T22:04:40.845Z,47.37
2022-08-17T22:07:12.557Z,47.32
2022-08-17T22:09:42.305Z,47.22
2022-08-17T22:12:24.241Z,47.23
2022-08-17T22:15:07.379Z,47.22
2022-08-17T22:17:38.633Z,47.33
2022-08-17T22:20:15.317Z,47.42
2022-08-17T22:23:06.477Z,47.22
2022-08-17T22:25:40.521Z,47.75
2022-08-17T22:28:11.548Z,47.60
2022-08-17T22:30:42.981Z,47.78
2022-08-17T22:33:31.547Z,47.94
2022-08-17T22:36:25.244Z,48.13
2022-08-17T22:39:00.389Z,47.91
2022-08-17T22:42:00.131Z,48.05
2022-08-17T22:44:35.555Z,48.65
2022-08-17T22:47:11.362Z,48.24
2022-08-17T22:49:57.545Z,48.11
2022-08-17T22:52:58.443Z,48.66
2022-08-17T22:55:46.865Z,48.86
2022-08-17T22:58:37.280Z,49.79
2022-08-17T23:01:31.489Z,50.03
2022-08-17T23:04:03.989Z,51.57
2022-08-17T23:06:34.351Z,50.81
2022-08-17T23:09:04.068Z,51.25
2022-08-17T23:11:49.290Z,50.77
2022-08-17T23:14:21.467Z,50.51
2022-08-17T23:16:50.905Z,50.41
2022-08-17T23:19:21.250Z,50.09
2022-08-17T23:21:55.128Z,50.24
2022-08-17T23:24:29.803Z,50.33
2022-08-17T23:26:58.040Z,50.10
2022-08-17T23:29:29.301Z,49.79
2022-08-17T23:31:59.851Z,50.14
2022-08-17T23:34:28.114Z,50.13
2022-08-17T23:36:55.911Z,50.16
2022-08-17T23:39:27.714Z,49.78
2022-08-17T23:42:00.945Z,49.86
2022-08-17T23:44:28.843Z,49.46
2022-08-17T23:46:56.748Z,49.37
2022-08-17T23:49:25.099Z,49.12
2022-08-17T23:51:54.582Z,48.89
2022-08-17T23:54:35.123Z,48.13
2022-08-17T23:57:04.730Z,48.03
2022-08-17T23:59:33.801Z,47.93
